createdAt,value
2018-04-04T00:08:50.710Z,993.4
2018-04-04T00:19:05.208Z,993.5
2018-04-04T00:29:19.736Z,993.6
2018-04-04T00:39:34.871Z,994.2
2018-04-04T00:49:50.014Z,994.4
2018-04-04T01:00:04.450Z,994.5
2018-04-04T01:10:19.413Z,994.7
2018-04-04T01:20:33.389Z,994.7
2018-04-04T01:30:48.845Z,994.9
2018-04-04T01:41:03.628Z,995.1
2018-04-04T01:51:17.734Z,995
2018-04-04T02:01:33.166Z,995.1
2018-04-04T02:11:46.938Z,995.2
2018-04-04T02:22:00.649Z,995.1
2018-04-04T02:32:14.721Z,995.2
2018-04-04T02:42:28.663Z,995.3
2018-04-04T02:52:43.151Z,995.5
2018-04-04T03:02:58.489Z,995.5
2018-04-04T03:13:12.409Z,995.6
2018-04-04T03:23:26.821Z,995.7
2018-04-04T03:33:40.999Z,995.8
2018-04-04T03:43:55.972Z,995.6
2018-04-04T03:54:09.684Z,995.6
2018-04-04T04:04:24.365Z,995.5
2018-04-04T04:14:38.160Z,995.4
2018-04-04T04:24:51.880Z,995.4
2018-04-04T04:35:05.644Z,995.3
2018-04-04T04:45:21.337Z,995.4
2018-04-04T04:55:34.978Z,995.3
2018-04-04T05:05:49.893Z,995.2
2018-04-04T05:16:03.908Z,995.3
2018-04-04T05:26:19.462Z,995.3
2018-04-04T05:36:35.065Z,995.5
2018-04-04T05:46:50.767Z,995.5
2018-04-04T05:57:06.364Z,995.4
2018-04-04T06:07:21.270Z,995.4
2018-04-04T06:17:35.633Z,995.6
2018-04-04T06:27:49.659Z,995.5
2018-04-04T06:38:04.337Z,995.5
2018-04-04T06:48:19.101Z,995.5
2018-04-04T06:58:32.888Z,995.5
2018-04-04T07:08:46.697Z,995.4
2018-04-04T07:19:01.604Z,995.4
2018-04-04T07:29:16.609Z,995.5
2018-04-04T07:39:32.136Z,995.4
2018-04-04T07:49:46.734Z,995.4
2018-04-04T08:00:01.119Z,995.5
2018-04-04T08:10:15.887Z,995.5
2018-04-04T08:20:31.510Z,995.6
2018-04-04T08:30:47.254Z,995.5
2018-04-04T08:41:01.387Z,995.5
2018-04-04T08:51:15.778Z,995.5
2018-04-04T09:01:31.284Z,995.5
2018-04-04T09:11:46.814Z,995.5
2018-04-04T09:22:00.758Z,995.5
2018-04-04T09:32:14.741Z,995.3
2018-04-04T09:42:29.592Z,995.1
2018-04-04T09:52:44.111Z,995
2018-04-04T10:02:59.643Z,995
2018-04-04T10:13:13.527Z,994.7
2018-04-04T10:23:28.706Z,994.9
2018-04-04T10:33:43.820Z,994.8
2018-04-04T10:43:59.445Z,994.5
2018-04-04T10:54:14.249Z,994.5
2018-04-04T11:04:28.380Z,994.3
2018-04-04T11:14:43.451Z,994.3
2018-04-04T11:24:58.825Z,994.2
2018-04-04T11:35:14.176Z,994.1
2018-04-04T11:45:29.162Z,994
2018-04-04T11:55:43.994Z,994.1
2018-04-04T12:05:58.954Z,993.9
2018-04-04T12:16:14.375Z,993.7
2018-04-04T12:26:29.062Z,993.5
2018-04-04T12:36:43.918Z,993.7
2018-04-04T12:46:58.288Z,993.4
2018-04-04T12:57:13.024Z,993.7
2018-04-04T13:07:28.553Z,993.2
2018-04-04T13:17:44.270Z,993.2
2018-04-04T13:27:58.283Z,993.6
2018-04-04T13:38:13.299Z,993.3
2018-04-04T13:48:27.194Z,993.2
2018-04-04T13:58:41.457Z,993.2
2018-04-04T14:08:55.529Z,993.1
2018-04-04T14:19:09.492Z,993.2
2018-04-04T14:29:23.627Z,993.2
2018-04-04T14:39:38.423Z,993.2
2018-04-04T14:49:53.790Z,992.9
2018-04-04T15:00:07.529Z,993.1
2018-04-04T15:10:23.300Z,993.1
2018-04-04T15:20:37.701Z,993.1
2018-04-04T15:30:52.668Z,993
2018-04-04T15:41:07.248Z,992.8
2018-04-04T15:51:21.950Z,992.9
2018-04-04T16:01:35.757Z,992.7
2018-04-04T16:11:51.387Z,992.8
2018-04-04T16:22:05.861Z,992.8
2018-04-04T16:32:19.759Z,992.7
2018-04-04T16:42:33.513Z,992.6
2018-04-04T16:52:47.866Z,992.6
2018-04-04T17:03:03.322Z,992.6
2018-04-04T17:13:17.377Z,992.6
2018-04-04T17:23:31.724Z,992.7
2018-04-04T17:33:45.774Z,992.5
2018-04-04T17:43:59.882Z,992.5
2018-04-04T17:54:14.051Z,992.5
2018-04-04T18:04:28.991Z,992.7
2018-04-04T18:14:43.248Z,992.7
2018-04-04T18:24:57.593Z,992.8
2018-04-04T18:35:12.057Z,992.8
2018-04-04T18:45:26.821Z,992.9
2018-04-04T18:55:40.880Z,993
2018-04-04T19:05:55.869Z,993.1
2018-04-04T19:16:11.174Z,993.1
2018-04-04T19:26:24.768Z,993.2
2018-04-04T19:36:38.926Z,993.2
2018-04-04T19:46:53.558Z,993.4
2018-04-04T19:57:07.564Z,993.4
2018-04-04T20:07:21.935Z,993.5
2018-04-04T20:17:36.431Z,993.5
2018-04-04T20:27:51.029Z,993.6
2018-04-04T20:38:06.289Z,993.4
2018-04-04T20:48:20.018Z,993.3
2018-04-04T20:58:35.327Z,993.2
2018-04-04T21:08:49.785Z,993.2
2018-04-04T21:19:04.136Z,993.1
2018-04-04T21:29:18.215Z,993.1
2018-04-04T21:39:33.490Z,993.2
2018-04-04T21:49:48.011Z,993.2
2018-04-04T22:00:01.773Z,993.2
2018-04-04T22:10:16.002Z,993.2
2018-04-04T22:20:31.048Z,993.1
2018-04-04T22:30:45.896Z,993.1
2018-04-04T22:41:00.290Z,993.1
2018-04-04T22:51:14.503Z,993.1
2018-04-04T23:01:28.760Z,993.2
2018-04-04T23:11:44.958Z,993.3
2018-04-04T23:21:58.935Z,993.6
2018-04-04T23:32:14.456Z,993.7
2018-04-04T23:42:29.383Z,993.7
2018-04-04T23:52:44.179Z,993.7
